CheckWX is a tool to help pilots better visualize weather data.  It is not intended as a substitute for an official pre-flight weather briefing.

09:53:36 UTC

KRDM METAR
Roberts Field Airport
Redmond, Oregon, USA
Current

58 mins ago

KRDM 190856Z AUTO 19003KT 10SM CLR 12/05 A2993 RMK AO2 SLP109 T01220050 51009 $
Observed
Aug-19 @ 08:56 UTC
Wind
  • 190° at 3 KTS
Visibility
10 SM
Flight Rules
VFR
Cloud Levels
  • Clear skies
Temperature
12°C / 54°F
Dewpoint
C / 41°F
Humidity
63%
Altimeter
29.93" Hg
Pressure
1013.52 hPa
Previous

2 hours ago

KRDM 190756Z AUTO 21003KT 10SM CLR 14/06 A2992 RMK AO2 SLP105 T01440056 403390067 $
Observed
Aug-19 @ 07:56 UTC
Wind
  • 210° at 3 KTS
Visibility
10 SM
Flight Rules
VFR
Cloud Levels
  • Clear skies
Temperature
14°C / 57°F
Dewpoint
C / 43°F
Humidity
59%
Altimeter
29.92" Hg
Pressure
1013.22 hPa
Previous

3 hours ago

KRDM 190656Z AUTO 05003KT 10SM CLR 16/06 A2991 RMK AO2 SLP103 T01610061 $
Observed
Aug-19 @ 06:56 UTC
Wind
  • 050° at 3 KTS
Visibility
10 SM
Flight Rules
VFR
Cloud Levels
  • Clear skies
Temperature
16°C / 61°F
Dewpoint
C / 43°F
Humidity
52%
Altimeter
29.91" Hg
Pressure
1012.92 hPa